This is the latest recevied weather packets stored in our database for station/object K7TSD. If no packets are shown the sender has not sent any weather packets the latest 10 day(s).
| Time | Temp. | Humidity | Pressure | Rain* | Wind** | Luminosity | Snow |
|---|---|---|---|---|---|---|---|
| 1778103069 | 10.56° C | 46% | 1011.3 hPa | 0 mm | - | 699 W/m² | - |
| 1778102766 | 9.44° C | 46% | 1011.6 hPa | 0 mm | - | 522 W/m² | - |
| 1778102460 | 9.44° C | 45% | 1011.7 hPa | 0 mm | - | 370 W/m² | - |
| 1778102156 | 9.44° C | 45% | 1011.8 hPa | 0 mm | - | 466 W/m² | - |
| 1778101854 | 8.89° C | 46% | 1011.7 hPa | 0 mm | - | 662 W/m² | - |
| 1778101550 | 10.56° C | 43% | 1012 hPa | 0 mm | - | 721 W/m² | - |
| 1778101247 | 10.56° C | 43% | 1012.2 hPa | 0 mm | - | 574 W/m² | - |
| 1778100943 | 10.56° C | 43% | 1012.1 hPa | 0 mm | - | 497 W/m² | - |
| 1778100639 | 9.44° C | 45% | 1012 hPa | 0 mm | - | 668 W/m² | - |
| 1778100337 | 8.89° C | 46% | 1012.3 hPa | 0 mm | - | 661 W/m² | - |
| 1778100034 | 9.44° C | 45% | 1012.4 hPa | 0 mm | - | 666 W/m² | - |
| 1778099732 | 8.89° C | 46% | 1012.2 hPa | 0 mm | - | 501 W/m² | - |
| 1778099428 | 10° C | 44% | 1012.3 hPa | 0 mm | - | 474 W/m² | - |
| 1778099126 | 8.89° C | 45% | 1012.3 hPa | 0 mm | - | 613 W/m² | - |
| 1778098822 | 8.89° C | 47% | 1012.2 hPa | 0 mm | - | 692 W/m² | - |
| 1778098520 | 8.33° C | 47% | 1012.3 hPa | 0 mm | - | 631 W/m² | - |
| 1778098216 | 10° C | 44% | 1012.4 hPa | 0 mm | - | 667 W/m² | - |
| 1778097912 | 9.44° C | 49% | 1012.3 hPa | 0 mm | - | 686 W/m² | - |
| 1778097609 | 8.89° C | 47% | 1012.4 hPa | 0 mm | - | 693 W/m² | - |
| 1778097306 | 8.89° C | 49% | 1012.7 hPa | 0 mm | - | 695 W/m² | - |
| 1778096997 | 8.89° C | 48% | 1012.8 hPa | 0 mm | - | 694 W/m² | - |
| 1778096695 | 7.78° C | 49% | 1012.9 hPa | 0 mm | - | 668 W/m² | - |
| 1778096391 | 7.78° C | 49% | 1012.9 hPa | 0 mm | - | 661 W/m² | - |
| 1778096088 | 8.33° C | 49% | 1012.8 hPa | 0 mm | - | 507 W/m² | - |
| 1778095784 | 8.89° C | 44% | 1012.8 hPa | 0 mm | - | 702 W/m² | - |
* Rain latest hour (hover to see other rain measurements)
** Current wind speed in m/s (hover to see current wind gust speed)